createdAt,value
2016-10-10T00:00:10.526Z,0
2016-10-10T00:01:10.594Z,0
2016-10-10T00:02:10.692Z,0
2016-10-10T00:03:11.065Z,0
2016-10-10T00:04:11.486Z,0
2016-10-10T00:05:11.509Z,0
2016-10-10T00:06:11.435Z,0
2016-10-10T00:07:11.019Z,0
2016-10-10T00:08:11.516Z,0
2016-10-10T00:09:11.949Z,0
2016-10-10T00:10:11.858Z,0
2016-10-10T00:11:11.122Z,0
2016-10-10T00:12:11.186Z,0
2016-10-10T00:13:11.518Z,0
2016-10-10T00:14:11.105Z,0
2016-10-10T00:15:11.278Z,0
2016-10-10T00:16:11.321Z,0
2016-10-10T00:17:11.489Z,0
2016-10-10T00:18:11.011Z,0
2016-10-10T00:19:11.483Z,0
2016-10-10T00:20:11.417Z,0
2016-10-10T00:21:11.325Z,0
2016-10-10T00:22:11.494Z,0
2016-10-10T00:23:10.971Z,0
2016-10-10T00:24:11.898Z,0
2016-10-10T00:25:11.867Z,0
2016-10-10T00:26:12.569Z,0
2016-10-10T00:27:11.720Z,0
2016-10-10T00:28:11.895Z,0
2016-10-10T00:29:11.671Z,0
2016-10-10T00:30:11.701Z,0
2016-10-10T00:31:12.798Z,0
2016-10-10T00:32:11.591Z,0
2016-10-10T00:33:12.250Z,0
2016-10-10T00:34:11.117Z,0
2016-10-10T00:35:11.498Z,0
2016-10-10T00:36:11.568Z,0
2016-10-10T00:37:11.573Z,0
2016-10-10T00:38:11.503Z,0
2016-10-10T00:39:12.327Z,0
2016-10-10T00:40:11.678Z,0
2016-10-10T00:41:11.954Z,0
2016-10-10T00:42:11.362Z,0
2016-10-10T00:43:12.057Z,0
2016-10-10T00:44:11.291Z,0
2016-10-10T00:45:11.826Z,0
2016-10-10T00:46:11.583Z,0
2016-10-10T00:47:12.187Z,0
2016-10-10T00:48:13.196Z,0
2016-10-10T00:49:12.063Z,0
2016-10-10T00:50:12.634Z,0
2016-10-10T00:51:11.955Z,0
2016-10-10T00:52:12.244Z,0
2016-10-10T00:53:12.590Z,0
2016-10-10T00:54:12.351Z,0
2016-10-10T00:55:12.945Z,0
2016-10-10T00:56:11.654Z,0
2016-10-10T00:57:11.968Z,0
2016-10-10T00:58:12.705Z,0
2016-10-10T00:59:12.322Z,0
2016-10-10T01:00:12.166Z,0
2016-10-10T01:01:12.284Z,0
2016-10-10T01:02:12.416Z,0
2016-10-10T01:03:12.143Z,0
2016-10-10T01:04:11.927Z,0
2016-10-10T01:05:11.894Z,0
2016-10-10T01:06:11.934Z,0
2016-10-10T01:07:11.995Z,0
2016-10-10T01:08:12.830Z,0
2016-10-10T01:09:12.191Z,0
2016-10-10T01:10:13.610Z,0
2016-10-10T01:11:12.104Z,0
2016-10-10T01:12:12.018Z,0
2016-10-10T01:13:11.920Z,0
2016-10-10T01:14:12.658Z,0
2016-10-10T01:15:12.734Z,0
2016-10-10T01:16:12.127Z,0
2016-10-10T01:17:12.146Z,0
2016-10-10T01:18:12.913Z,0
2016-10-10T01:19:12.278Z,0
2016-10-10T01:20:12.008Z,0
2016-10-10T01:21:12.727Z,0
2016-10-10T01:22:12.662Z,0
2016-10-10T01:23:12.802Z,0
2016-10-10T01:24:12.887Z,0
2016-10-10T01:25:12.679Z,0
2016-10-10T01:26:12.653Z,0
2016-10-10T01:27:12.251Z,0
2016-10-10T01:28:13.643Z,0
2016-10-10T01:29:12.763Z,0
2016-10-10T01:30:12.776Z,0
2016-10-10T01:31:12.624Z,0
2016-10-10T01:32:12.517Z,0
2016-10-10T01:33:12.470Z,0
2016-10-10T01:34:12.670Z,0
2016-10-10T01:35:12.928Z,0
2016-10-10T01:36:12.927Z,0
2016-10-10T01:37:12.964Z,0
2016-10-10T01:38:12.918Z,0
2016-10-10T01:39:12.763Z,0
2016-10-10T01:40:12.279Z,0
2016-10-10T01:41:12.854Z,0
2016-10-10T01:42:12.701Z,0
2016-10-10T01:43:13.476Z,0
2016-10-10T01:44:13.092Z,0
2016-10-10T01:45:13.579Z,0
2016-10-10T01:46:13.362Z,0
2016-10-10T01:47:13.395Z,0
2016-10-10T01:48:13.319Z,0
2016-10-10T01:49:13.038Z,0
2016-10-10T01:50:12.741Z,0
2016-10-10T01:51:13.523Z,0
2016-10-10T01:52:13.792Z,0
2016-10-10T01:53:13.035Z,0
2016-10-10T01:54:12.905Z,0
2016-10-10T01:55:13.348Z,0
2016-10-10T01:56:12.732Z,0
2016-10-10T01:57:13.254Z,0
2016-10-10T01:58:13.443Z,0
2016-10-10T01:59:13.063Z,0
2016-10-10T02:00:13.308Z,0
2016-10-10T02:01:12.654Z,0
2016-10-10T02:02:13.413Z,0
2016-10-10T02:03:12.675Z,0
2016-10-10T02:04:14.231Z,0
2016-10-10T02:05:13.391Z,0
2016-10-10T02:06:13.397Z,0
2016-10-10T02:07:14.252Z,0
2016-10-10T02:08:12.823Z,0
2016-10-10T02:09:12.992Z,0
2016-10-10T02:10:13.734Z,0
2016-10-10T02:11:13.676Z,0
2016-10-10T02:12:14.185Z,0
2016-10-10T02:13:13.736Z,0
2016-10-10T02:14:13.411Z,0
2016-10-10T02:15:13.076Z,0
2016-10-10T02:16:13.478Z,0
2016-10-10T02:17:13.655Z,0
2016-10-10T02:18:13.667Z,0
2016-10-10T02:19:13.395Z,0
2016-10-10T02:20:14.187Z,0
2016-10-10T02:21:14.302Z,0
2016-10-10T02:22:13.431Z,0
2016-10-10T02:23:14.428Z,0
2016-10-10T02:24:13.273Z,0
2016-10-10T02:25:13.858Z,0
2016-10-10T02:26:13.384Z,0
2016-10-10T02:27:13.116Z,0
2016-10-10T02:28:14.047Z,0
2016-10-10T02:29:14.035Z,0
2016-10-10T02:30:13.778Z,0
2016-10-10T02:31:13.649Z,0
2016-10-10T02:32:13.019Z,0
2016-10-10T02:33:13.446Z,0
2016-10-10T02:34:13.918Z,0
2016-10-10T02:35:13.550Z,0
2016-10-10T02:36:13.899Z,0
2016-10-10T02:37:13.339Z,0
2016-10-10T02:38:14.809Z,0
2016-10-10T02:39:14.078Z,0
2016-10-10T02:40:14.632Z,0
2016-10-10T02:41:13.782Z,0
2016-10-10T02:42:13.795Z,0
2016-10-10T02:43:14.255Z,0
2016-10-10T02:44:13.927Z,0
2016-10-10T02:45:14.415Z,0
2016-10-10T02:46:14.214Z,0
2016-10-10T02:47:13.386Z,0
2016-10-10T02:48:14.105Z,0
2016-10-10T02:49:14.090Z,0
2016-10-10T02:50:13.791Z,0
2016-10-10T02:51:13.781Z,0
2016-10-10T02:52:13.530Z,0
2016-10-10T02:53:13.358Z,0
2016-10-10T02:54:14.090Z,0
2016-10-10T02:55:15.072Z,0
2016-10-10T02:56:13.475Z,0
2016-10-10T02:57:14.403Z,0
2016-10-10T02:58:13.870Z,0
2016-10-10T02:59:13.875Z,0
2016-10-10T03:00:15.270Z,0
2016-10-10T03:01:13.459Z,0
2016-10-10T03:02:14.588Z,0
2016-10-10T03:03:14.291Z,0
2016-10-10T03:04:14.042Z,0
2016-10-10T03:05:14.313Z,0
2016-10-10T03:06:13.605Z,0
2016-10-10T03:07:13.880Z,0
2016-10-10T03:08:14.187Z,0
2016-10-10T03:09:14.067Z,0
2016-10-10T03:10:14.772Z,0
2016-10-10T03:11:14.698Z,0
2016-10-10T03:12:14.760Z,0
2016-10-10T03:13:15.319Z,0
2016-10-10T03:14:15.050Z,0
2016-10-10T03:15:14.296Z,0
2016-10-10T03:16:14.316Z,0
2016-10-10T03:17:15.120Z,0
2016-10-10T03:18:13.781Z,0
2016-10-10T03:19:14.418Z,0
2016-10-10T03:20:14.597Z,0
2016-10-10T03:21:13.746Z,0
2016-10-10T03:22:14.070Z,0
2016-10-10T03:23:13.772Z,0
2016-10-10T03:24:14.961Z,0
2016-10-10T03:25:14.555Z,0
2016-10-10T03:26:14.785Z,0
2016-10-10T03:27:13.953Z,0
2016-10-10T03:28:14.765Z,0
2016-10-10T03:29:15.131Z,0
2016-10-10T03:30:14.780Z,0
2016-10-10T03:31:15.859Z,0
2016-10-10T03:32:15.042Z,0
2016-10-10T03:33:14.654Z,0
2016-10-10T03:34:14.699Z,0
2016-10-10T03:35:15.159Z,0
2016-10-10T03:36:14.540Z,0
2016-10-10T03:37:15.039Z,0
2016-10-10T03:38:16.196Z,0
2016-10-10T03:39:14.724Z,0
2016-10-10T03:40:15.240Z,0
2016-10-10T03:41:14.961Z,0
2016-10-10T03:42:14.837Z,0
2016-10-10T03:43:14.748Z,0
2016-10-10T03:44:15.657Z,0
2016-10-10T03:45:15.168Z,0
2016-10-10T03:46:14.963Z,0
2016-10-10T03:47:15.150Z,0
2016-10-10T03:48:15.168Z,0
2016-10-10T03:49:14.741Z,0
2016-10-10T03:50:15.264Z,0
2016-10-10T03:51:14.722Z,0
2016-10-10T03:52:15.685Z,0
2016-10-10T03:53:16.463Z,0
2016-10-10T03:54:15.174Z,0
2016-10-10T03:55:15.022Z,0
2016-10-10T03:56:14.848Z,0
2016-10-10T03:57:14.847Z,0
2016-10-10T03:58:14.870Z,0
2016-10-10T03:59:15.266Z,0
2016-10-10T04:00:15.015Z,0
2016-10-10T04:01:15.581Z,0
2016-10-10T04:02:15.186Z,0
2016-10-10T04:03:15.177Z,0
2016-10-10T04:04:15.074Z,0
2016-10-10T04:05:15.475Z,0
2016-10-10T04:06:16.707Z,0
2016-10-10T04:07:15.228Z,0
2016-10-10T04:08:14.599Z,0
2016-10-10T04:09:14.802Z,0
2016-10-10T04:10:15.607Z,0
2016-10-10T04:11:15.690Z,0
2016-10-10T04:12:16.418Z,0
2016-10-10T04:13:15.525Z,0
2016-10-10T04:14:16.168Z,0
2016-10-10T04:15:15.512Z,0
2016-10-10T04:16:15.677Z,0
2016-10-10T04:17:16.304Z,0
2016-10-10T04:18:15.304Z,0
2016-10-10T04:19:16.264Z,0
2016-10-10T04:20:15.319Z,0
2016-10-10T04:21:15.348Z,0
2016-10-10T04:22:15.759Z,0
2016-10-10T04:23:16.368Z,0
2016-10-10T04:24:15.894Z,0
2016-10-10T04:25:15.341Z,0
2016-10-10T04:26:15.104Z,0
2016-10-10T04:27:15.634Z,0
2016-10-10T04:28:15.907Z,0
2016-10-10T04:29:16.223Z,0
2016-10-10T04:30:16.047Z,0
2016-10-10T04:31:15.260Z,0
2016-10-10T04:32:15.848Z,0
2016-10-10T04:33:16.536Z,0
2016-10-10T04:34:16.012Z,0
2016-10-10T04:35:15.888Z,0
2016-10-10T04:36:25.787Z,0
2016-10-10T04:37:16.427Z,0
2016-10-10T04:38:16.338Z,0
2016-10-10T04:39:16.487Z,0
2016-10-10T04:40:16.644Z,0
2016-10-10T04:41:17.394Z,0
2016-10-10T04:42:15.562Z,0
2016-10-10T04:43:16.245Z,0
2016-10-10T04:44:15.645Z,0
2016-10-10T04:45:15.769Z,0
2016-10-10T04:46:15.936Z,0
2016-10-10T04:47:16.551Z,0
2016-10-10T04:48:15.752Z,0
2016-10-10T04:49:15.888Z,0
2016-10-10T04:50:16.139Z,0
2016-10-10T04:51:16.706Z,0
2016-10-10T04:52:15.783Z,0
2016-10-10T04:53:15.868Z,0
2016-10-10T04:54:15.828Z,0
2016-10-10T04:55:16.228Z,0
2016-10-10T04:56:16.826Z,0
2016-10-10T04:57:15.655Z,0
2016-10-10T04:58:15.739Z,0
2016-10-10T04:59:15.954Z,0
2016-10-10T05:00:16.883Z,0
2016-10-10T05:01:15.794Z,0
2016-10-10T05:02:17.088Z,0
2016-10-10T05:03:16.697Z,0
2016-10-10T05:04:16.468Z,0
2016-10-10T05:05:16.235Z,0
2016-10-10T05:06:16.341Z,0
2016-10-10T05:07:16.686Z,4
2016-10-10T05:08:17.300Z,0
2016-10-10T05:09:16.806Z,0
2016-10-10T05:10:15.990Z,4
2016-10-10T05:11:16.417Z,4
2016-10-10T05:12:17.413Z,4
2016-10-10T05:13:16.618Z,4
2016-10-10T05:14:15.986Z,4
2016-10-10T05:15:16.534Z,8
2016-10-10T05:16:16.077Z,8
2016-10-10T05:17:16.010Z,12
2016-10-10T05:18:16.940Z,12
2016-10-10T05:19:15.734Z,16
2016-10-10T05:20:16.613Z,20
2016-10-10T05:21:16.561Z,24
2016-10-10T05:22:16.870Z,24
2016-10-10T05:23:16.325Z,28
2016-10-10T05:24:16.530Z,36
2016-10-10T05:25:17.100Z,44
2016-10-10T05:26:17.499Z,48
2016-10-10T05:27:16.852Z,56
2016-10-10T05:28:16.612Z,64
2016-10-10T05:29:16.652Z,76
2016-10-10T05:30:16.040Z,84
2016-10-10T05:31:16.462Z,96
2016-10-10T05:32:16.532Z,108
2016-10-10T05:33:16.274Z,120
2016-10-10T05:34:17.051Z,132
2016-10-10T05:35:16.844Z,148
2016-10-10T05:36:16.272Z,164
2016-10-10T05:37:16.799Z,180
2016-10-10T05:38:17.089Z,200
2016-10-10T05:39:17.478Z,220
2016-10-10T05:40:17.343Z,236
2016-10-10T05:41:17.621Z,260
2016-10-10T05:42:15.966Z,280
2016-10-10T05:43:21.555Z,308
2016-10-10T05:44:15.909Z,328
2016-10-10T05:45:25.202Z,356
2016-10-10T05:46:16.071Z,380
2016-10-10T05:48:15.969Z,436
2016-10-10T05:49:37.298Z,472
2016-10-10T05:50:19.292Z,496
2016-10-10T05:51:17.866Z,520
2016-10-10T05:52:16.414Z,552
2016-10-10T05:53:18.737Z,588
2016-10-10T05:54:18.352Z,624
2016-10-10T05:55:17.412Z,656
2016-10-10T05:56:17.417Z,692
2016-10-10T05:57:17.222Z,728
2016-10-10T05:58:17.484Z,768
2016-10-10T05:59:17.391Z,808
2016-10-10T06:00:17.390Z,852
2016-10-10T06:01:17.625Z,900
2016-10-10T06:02:17.955Z,948
2016-10-10T06:03:17.471Z,1004
2016-10-10T06:04:16.600Z,1056
2016-10-10T06:05:16.564Z,1108
2016-10-10T06:06:17.013Z,1160
2016-10-10T06:07:16.685Z,1204
2016-10-10T06:08:17.707Z,1244
2016-10-10T06:09:17.284Z,1288
2016-10-10T06:10:17.390Z,1332
2016-10-10T06:11:17.354Z,1372
2016-10-10T06:12:17.965Z,1428
2016-10-10T06:13:18.158Z,1480
2016-10-10T06:14:17.188Z,1540
2016-10-10T06:15:18.264Z,1596
2016-10-10T06:16:17.669Z,1656
2016-10-10T06:17:17.534Z,1724
2016-10-10T06:18:17.000Z,1788
2016-10-10T06:19:17.424Z,1852
2016-10-10T06:20:17.422Z,1916
2016-10-10T06:21:17.899Z,1988
2016-10-10T06:22:17.155Z,2048
2016-10-10T06:23:17.939Z,2120
2016-10-10T06:24:17.173Z,2188
2016-10-10T06:25:17.900Z,2260
2016-10-10T06:26:17.216Z,2340
2016-10-10T06:27:17.602Z,2420
2016-10-10T06:28:17.652Z,2496
2016-10-10T06:29:17.574Z,2576
2016-10-10T06:30:17.633Z,2648
2016-10-10T06:31:17.365Z,2716
2016-10-10T06:32:18.613Z,2776
2016-10-10T06:33:18.490Z,2828
2016-10-10T06:34:17.148Z,2888
2016-10-10T06:35:17.423Z,2952
2016-10-10T06:36:17.448Z,3024
2016-10-10T06:37:17.308Z,3112
2016-10-10T06:38:17.857Z,3200
2016-10-10T06:39:18.176Z,3292
2016-10-10T06:40:17.489Z,3372
2016-10-10T06:41:16.824Z,3456
2016-10-10T06:42:18.017Z,3532
2016-10-10T06:43:18.690Z,3608
2016-10-10T06:44:17.293Z,3680
2016-10-10T06:45:17.668Z,3748
2016-10-10T06:46:18.417Z,3812
2016-10-10T06:47:18.621Z,3856
2016-10-10T06:48:18.041Z,3896
2016-10-10T06:49:18.794Z,3928
2016-10-10T06:50:17.700Z,3960
2016-10-10T06:51:18.116Z,3988
2016-10-10T06:52:17.665Z,4028
2016-10-10T06:53:17.531Z,4064
2016-10-10T06:54:18.655Z,4112
2016-10-10T06:55:18.920Z,4160
2016-10-10T06:56:18.058Z,4212
2016-10-10T06:57:18.981Z,4260
2016-10-10T06:58:17.968Z,4292
2016-10-10T06:59:18.314Z,4332
2016-10-10T07:00:17.841Z,4368
2016-10-10T07:01:17.487Z,4408
2016-10-10T07:02:17.749Z,4464
2016-10-10T07:03:19.372Z,4524
2016-10-10T07:04:18.023Z,4584
2016-10-10T07:05:17.422Z,4648
2016-10-10T07:06:18.239Z,4720
2016-10-10T07:07:18.033Z,4784
2016-10-10T07:08:17.942Z,4836
2016-10-10T07:09:18.751Z,4884
2016-10-10T07:10:18.559Z,4936
2016-10-10T07:11:18.725Z,4980
2016-10-10T07:12:17.914Z,5028
2016-10-10T07:13:18.132Z,5080
2016-10-10T07:14:17.781Z,5140
2016-10-10T07:15:18.278Z,5200
2016-10-10T07:16:18.672Z,5268
2016-10-10T07:17:18.472Z,5340
2016-10-10T07:18:18.336Z,5396
2016-10-10T07:19:18.324Z,5448
2016-10-10T07:20:18.094Z,5500
2016-10-10T07:21:18.617Z,5560
2016-10-10T07:22:18.642Z,5632
2016-10-10T07:23:18.749Z,5736
2016-10-10T07:24:18.581Z,5844
2016-10-10T07:25:18.900Z,5944
2016-10-10T07:26:18.199Z,6016
2016-10-10T07:27:18.703Z,6048
2016-10-10T07:28:18.080Z,6040
2016-10-10T07:29:19.242Z,6008
2016-10-10T07:30:18.090Z,5980
2016-10-10T07:31:18.315Z,5972
2016-10-10T07:32:19.391Z,6012
2016-10-10T07:33:18.340Z,6120
2016-10-10T07:34:18.269Z,6256
2016-10-10T07:35:18.942Z,6416
2016-10-10T07:36:19.121Z,6584
2016-10-10T07:37:18.255Z,6744
2016-10-10T07:38:19.292Z,6904
2016-10-10T07:39:18.305Z,7052
2016-10-10T07:40:18.336Z,7184
2016-10-10T07:41:18.820Z,7312
2016-10-10T07:42:19.208Z,7428
2016-10-10T07:43:19.399Z,7540
2016-10-10T07:44:19.067Z,7648
2016-10-10T07:45:19.315Z,7764
2016-10-10T07:46:19.304Z,7904
2016-10-10T07:47:18.932Z,8056
2016-10-10T07:48:18.220Z,8204
2016-10-10T07:49:18.756Z,8336
2016-10-10T07:50:20.347Z,8428
2016-10-10T07:51:18.971Z,8464
2016-10-10T07:52:18.772Z,8484
2016-10-10T07:53:18.764Z,8476
2016-10-10T07:54:19.022Z,8512
2016-10-10T07:55:18.839Z,8544
2016-10-10T07:56:18.687Z,8608
2016-10-10T07:57:19.053Z,8708
2016-10-10T07:58:19.485Z,8824
2016-10-10T07:59:19.206Z,8948
2016-10-10T08:00:20.488Z,9076
2016-10-10T08:01:19.062Z,9200
2016-10-10T08:02:19.419Z,9316
2016-10-10T08:03:18.668Z,9412
2016-10-10T08:04:19.404Z,9504
2016-10-10T08:05:19.615Z,9568
2016-10-10T08:06:18.980Z,9620
2016-10-10T08:07:18.592Z,9684
2016-10-10T08:08:18.974Z,9804
2016-10-10T08:09:18.788Z,9972
2016-10-10T08:10:19.586Z,10192
2016-10-10T08:11:19.174Z,10444
2016-10-10T08:12:19.322Z,10712
2016-10-10T08:13:19.837Z,10964
2016-10-10T08:14:19.552Z,11152
2016-10-10T08:15:19.099Z,11272
2016-10-10T08:16:18.895Z,11336
2016-10-10T08:17:19.728Z,11376
2016-10-10T08:18:19.139Z,11432
2016-10-10T08:19:19.806Z,11520
2016-10-10T08:20:18.853Z,11632
2016-10-10T08:21:19.408Z,11768
2016-10-10T08:22:19.917Z,11904
2016-10-10T08:23:19.552Z,12008
2016-10-10T08:24:19.169Z,12092
2016-10-10T08:25:19.782Z,12156
2016-10-10T08:26:19.637Z,12204
2016-10-10T08:27:19.204Z,12240
2016-10-10T08:28:19.413Z,12280
2016-10-10T08:29:19.690Z,12332
2016-10-10T08:30:20.031Z,12404
2016-10-10T08:31:19.067Z,12504
2016-10-10T08:32:19.335Z,12616
2016-10-10T08:33:19.851Z,12748
2016-10-10T08:34:19.612Z,12872
2016-10-10T08:35:19.885Z,13004
2016-10-10T08:36:19.235Z,13128
2016-10-10T08:37:19.633Z,13236
2016-10-10T08:38:20.004Z,13308
2016-10-10T08:39:19.801Z,13368
2016-10-10T08:40:19.604Z,13400
2016-10-10T08:41:19.262Z,13448
2016-10-10T08:42:20.418Z,13480
2016-10-10T08:43:20.431Z,13500
2016-10-10T08:44:20.408Z,13516
2016-10-10T08:45:19.783Z,13492
2016-10-10T08:46:20.378Z,13428
2016-10-10T08:47:19.995Z,13352
2016-10-10T08:48:20.136Z,13272
2016-10-10T08:49:20.939Z,13216
2016-10-10T08:50:19.722Z,13196
2016-10-10T08:51:19.948Z,13216
2016-10-10T08:52:20.632Z,13284
2016-10-10T08:53:20.289Z,13372
2016-10-10T08:54:20.193Z,13472
2016-10-10T08:55:19.687Z,13568
2016-10-10T08:56:20.255Z,13660
2016-10-10T08:57:20.595Z,13756
2016-10-10T08:58:21.886Z,13868
2016-10-10T08:59:20.300Z,14012
2016-10-10T09:00:20.253Z,14172
2016-10-10T09:01:19.654Z,14344
2016-10-10T09:02:20.230Z,14496
2016-10-10T09:03:20.128Z,14636
2016-10-10T09:04:20.220Z,14744
2016-10-10T09:05:20.216Z,14844
2016-10-10T09:06:19.940Z,14936
2016-10-10T09:07:20.333Z,15016
2016-10-10T09:08:20.045Z,15076
2016-10-10T09:09:20.184Z,15124
2016-10-10T09:10:21.312Z,15176
2016-10-10T09:11:20.448Z,15216
2016-10-10T09:12:20.881Z,15292
2016-10-10T09:13:20.200Z,15388
2016-10-10T09:14:20.519Z,15520
2016-10-10T09:15:20.145Z,15672
2016-10-10T09:16:20.857Z,15824
2016-10-10T09:17:21.231Z,15952
2016-10-10T09:18:20.767Z,16044
2016-10-10T09:19:20.215Z,16124
2016-10-10T09:20:21.119Z,16176
2016-10-10T09:21:20.247Z,16220
2016-10-10T09:22:20.179Z,16252
2016-10-10T09:23:20.724Z,16280
2016-10-10T09:24:20.952Z,16480
2016-10-10T09:25:21.396Z,16480
2016-10-10T09:26:20.962Z,16544
2016-10-10T09:27:19.940Z,16640
2016-10-10T09:28:20.748Z,16704
2016-10-10T09:29:21.377Z,16800
2016-10-10T09:30:22.251Z,16800
2016-10-10T09:31:20.308Z,16832
2016-10-10T09:32:20.477Z,16832
2016-10-10T09:33:19.916Z,16800
2016-10-10T09:34:20.831Z,16768
2016-10-10T09:35:20.604Z,16704
2016-10-10T09:36:20.896Z,16704
2016-10-10T09:37:20.482Z,16704
2016-10-10T09:38:20.835Z,16800
2016-10-10T09:39:20.797Z,16928
2016-10-10T09:40:20.787Z,17088
2016-10-10T09:41:20.934Z,17216
2016-10-10T09:42:20.906Z,17408
2016-10-10T09:43:20.747Z,17536
2016-10-10T09:44:20.920Z,17664
2016-10-10T09:45:20.599Z,17760
2016-10-10T09:46:20.746Z,17824
2016-10-10T09:47:22.213Z,17984
2016-10-10T09:48:21.915Z,18080
2016-10-10T09:49:21.964Z,18144
2016-10-10T09:50:21.431Z,18240
2016-10-10T09:51:21.021Z,18240
2016-10-10T09:52:21.498Z,18240
2016-10-10T09:53:20.840Z,18208
2016-10-10T09:54:20.905Z,18176
2016-10-10T09:55:21.246Z,18144
2016-10-10T09:56:20.637Z,18112
2016-10-10T09:57:22.290Z,18080
2016-10-10T09:58:21.750Z,18016
2016-10-10T09:59:21.435Z,18048
2016-10-10T10:00:21.137Z,18016
2016-10-10T10:01:21.972Z,18048
2016-10-10T10:02:22.954Z,18080
2016-10-10T10:03:21.529Z,18144
2016-10-10T10:04:21.394Z,18144
2016-10-10T10:05:21.651Z,18208
2016-10-10T10:06:21.151Z,18272
2016-10-10T10:07:21.350Z,18272
2016-10-10T10:08:21.337Z,18336
2016-10-10T10:09:21.856Z,18368
2016-10-10T10:10:21.308Z,18464
2016-10-10T10:11:21.295Z,18592
2016-10-10T10:12:22.317Z,18752
2016-10-10T10:13:20.936Z,18944
2016-10-10T10:14:21.649Z,19104
2016-10-10T10:15:21.431Z,19264
2016-10-10T10:16:21.550Z,19424
2016-10-10T10:17:21.386Z,19552
2016-10-10T10:18:21.955Z,19744
2016-10-10T10:19:21.503Z,19968
2016-10-10T10:20:22.746Z,20224
2016-10-10T10:21:21.598Z,20480
2016-10-10T10:22:22.209Z,20672
2016-10-10T10:23:22.134Z,20800
2016-10-10T10:24:21.959Z,20832
2016-10-10T10:25:21.934Z,20832
2016-10-10T10:26:21.767Z,20896
2016-10-10T10:27:22.301Z,20992
2016-10-10T10:28:22.091Z,21120
2016-10-10T10:29:22.703Z,21248
2016-10-10T10:30:21.701Z,21344
2016-10-10T10:31:22.494Z,21312
2016-10-10T10:32:22.577Z,21216
2016-10-10T10:33:22.382Z,21184
2016-10-10T10:34:21.793Z,21120
2016-10-10T10:35:21.823Z,21184
2016-10-10T10:36:21.520Z,21280
2016-10-10T10:37:21.902Z,21440
2016-10-10T10:38:22.514Z,21600
2016-10-10T10:39:21.806Z,21728
2016-10-10T10:40:22.608Z,21824
2016-10-10T10:41:21.757Z,21888
2016-10-10T10:42:23.123Z,21952
2016-10-10T10:43:23.128Z,22048
2016-10-10T10:44:21.570Z,22144
2016-10-10T10:45:21.633Z,22240
2016-10-10T10:46:22.284Z,22304
2016-10-10T10:47:22.347Z,22336
2016-10-10T10:48:21.835Z,22304
2016-10-10T10:49:22.413Z,22176
2016-10-10T10:50:23.204Z,21984
2016-10-10T10:51:22.221Z,21760
2016-10-10T10:52:22.292Z,21664
2016-10-10T10:53:22.173Z,21568
2016-10-10T10:54:21.828Z,21536
2016-10-10T10:55:21.956Z,21568
2016-10-10T10:56:22.505Z,21632
2016-10-10T10:57:22.776Z,21696
2016-10-10T10:58:22.210Z,21824
2016-10-10T10:59:22.582Z,21952
2016-10-10T11:00:22.698Z,22016
2016-10-10T11:01:21.986Z,22016
2016-10-10T11:02:22.207Z,21984
2016-10-10T11:03:23.086Z,21984
2016-10-10T11:04:22.306Z,21984
2016-10-10T11:05:22.846Z,22080
2016-10-10T11:06:22.092Z,22208
2016-10-10T11:07:22.670Z,22368
2016-10-10T11:08:22.211Z,22560
2016-10-10T11:09:23.051Z,22784
2016-10-10T11:10:22.212Z,23008
2016-10-10T11:11:23.016Z,23200
2016-10-10T11:12:22.325Z,23232
2016-10-10T11:13:22.912Z,23200
2016-10-10T11:14:23.844Z,23040
2016-10-10T11:15:22.812Z,22880
2016-10-10T11:16:22.902Z,22752
2016-10-10T11:17:23.081Z,22720
2016-10-10T11:18:22.753Z,22720
2016-10-10T11:19:22.505Z,22816
2016-10-10T11:20:22.964Z,22816
2016-10-10T11:21:23.575Z,22752
2016-10-10T11:22:22.563Z,22624
2016-10-10T11:23:22.789Z,22432
2016-10-10T11:24:22.829Z,22240
2016-10-10T11:25:22.742Z,21856
2016-10-10T11:26:23.814Z,21472
2016-10-10T11:27:23.217Z,21120
2016-10-10T11:28:23.089Z,20864
2016-10-10T11:29:22.935Z,20608
2016-10-10T11:30:22.835Z,20480
2016-10-10T11:31:23.051Z,20480
2016-10-10T11:32:23.727Z,20512
2016-10-10T11:33:23.015Z,20608
2016-10-10T11:34:23.774Z,20704
2016-10-10T11:35:23.067Z,20832
2016-10-10T11:36:23.586Z,21024
2016-10-10T11:37:23.666Z,21216
2016-10-10T11:38:23.767Z,21312
2016-10-10T11:39:23.113Z,21088
2016-10-10T11:40:23.264Z,20832
2016-10-10T11:41:22.640Z,20320
2016-10-10T11:42:23.561Z,19936
2016-10-10T11:43:23.485Z,19744
2016-10-10T11:44:23.104Z,20672
2016-10-10T11:45:22.800Z,19744
2016-10-10T11:46:23.481Z,19616
2016-10-10T11:47:22.832Z,19648
2016-10-10T11:48:23.553Z,19648
2016-10-10T11:49:23.596Z,19840
2016-10-10T11:50:23.571Z,20064
2016-10-10T11:51:23.801Z,20192
2016-10-10T11:52:23.285Z,20192
2016-10-10T11:53:23.677Z,20192
2016-10-10T11:54:23.996Z,20224
2016-10-10T11:55:23.490Z,20192
2016-10-10T11:56:23.394Z,20096
2016-10-10T11:57:23.899Z,19744
2016-10-10T11:58:24.278Z,19392
2016-10-10T11:59:23.593Z,19360
2016-10-10T12:00:23.952Z,19456
2016-10-10T12:01:23.099Z,19584
2016-10-10T12:02:23.877Z,19680
2016-10-10T12:03:24.293Z,20000
2016-10-10T12:04:23.656Z,19424
2016-10-10T12:05:24.574Z,18784
2016-10-10T12:06:23.893Z,18208
2016-10-10T12:07:24.273Z,17792
2016-10-10T12:08:24.010Z,17504
2016-10-10T12:09:23.838Z,16720
2016-10-10T12:10:24.588Z,16452
2016-10-10T12:11:24.607Z,16300
2016-10-10T12:12:23.841Z,16320
2016-10-10T12:13:24.345Z,16284
2016-10-10T12:14:24.266Z,16256
2016-10-10T12:15:23.747Z,16080
2016-10-10T12:16:24.415Z,16084
2016-10-10T12:17:24.169Z,16144
2016-10-10T12:18:24.088Z,16160
2016-10-10T12:19:24.116Z,16188
2016-10-10T12:20:24.157Z,16244
2016-10-10T12:21:24.633Z,16404
2016-10-10T12:22:24.411Z,16536
2016-10-10T12:23:25.271Z,16644
2016-10-10T12:24:24.484Z,17088
2016-10-10T12:25:24.213Z,17536
2016-10-10T12:26:23.811Z,18176
2016-10-10T12:27:24.998Z,18848
2016-10-10T12:28:25.092Z,19488
2016-10-10T12:29:24.023Z,19904
2016-10-10T12:30:24.195Z,19936
2016-10-10T12:31:23.730Z,19840
2016-10-10T12:32:24.733Z,19712
2016-10-10T12:33:24.397Z,19616
2016-10-10T12:34:24.964Z,19360
2016-10-10T12:35:24.509Z,19392
2016-10-10T12:36:23.878Z,19808
2016-10-10T12:37:24.696Z,20000
2016-10-10T12:38:24.685Z,20544
2016-10-10T12:39:24.305Z,21344
2016-10-10T12:40:24.672Z,20736
2016-10-10T12:41:24.936Z,21152
2016-10-10T12:42:24.716Z,20320
2016-10-10T12:43:25.049Z,19840
2016-10-10T12:44:25.353Z,19648
2016-10-10T12:45:24.282Z,19424
2016-10-10T12:46:24.809Z,19328
2016-10-10T12:47:24.114Z,19200
2016-10-10T12:48:24.567Z,19040
2016-10-10T12:49:24.495Z,19008
2016-10-10T12:50:24.018Z,18976
2016-10-10T12:51:24.974Z,18816
2016-10-10T12:52:24.734Z,18720
2016-10-10T12:53:25.252Z,18560
2016-10-10T12:54:24.716Z,18112
2016-10-10T12:55:24.099Z,17888
2016-10-10T12:56:24.329Z,17728
2016-10-10T12:57:24.295Z,17440
2016-10-10T12:58:25.388Z,17280
2016-10-10T12:59:24.858Z,17440
2016-10-10T13:00:24.890Z,17344
2016-10-10T13:01:24.499Z,17376
2016-10-10T13:02:24.868Z,17440
2016-10-10T13:03:24.358Z,17472
2016-10-10T13:04:24.934Z,17536
2016-10-10T13:05:24.762Z,17408
2016-10-10T13:06:24.819Z,17184
2016-10-10T13:07:27.492Z,17120
2016-10-10T13:08:25.043Z,17152
2016-10-10T13:09:25.400Z,17184
2016-10-10T13:10:25.986Z,17312
2016-10-10T13:11:24.749Z,17312
2016-10-10T13:12:25.472Z,17376
2016-10-10T13:13:24.909Z,17344
2016-10-10T13:14:25.142Z,17248
2016-10-10T13:15:25.137Z,17152
2016-10-10T13:16:25.705Z,16992
2016-10-10T13:17:25.419Z,16832
2016-10-10T13:18:25.644Z,16544
2016-10-10T13:19:25.121Z,16080
2016-10-10T13:20:25.367Z,15784
2016-10-10T13:21:25.610Z,15560
2016-10-10T13:22:26.303Z,15440
2016-10-10T13:23:25.855Z,15376
2016-10-10T13:24:25.891Z,15300
2016-10-10T13:25:25.392Z,15216
2016-10-10T13:26:25.047Z,15176
2016-10-10T13:27:25.810Z,15120
2016-10-10T13:28:25.186Z,14968
2016-10-10T13:29:25.050Z,14748
2016-10-10T13:30:24.933Z,14532
2016-10-10T13:31:25.589Z,14452
2016-10-10T13:32:25.533Z,14340
2016-10-10T13:33:25.289Z,14364
2016-10-10T13:34:25.350Z,14416
2016-10-10T13:35:25.862Z,14404
2016-10-10T13:36:25.259Z,14556
2016-10-10T13:37:26.030Z,14668
2016-10-10T13:38:25.537Z,14624
2016-10-10T13:39:26.205Z,14516
2016-10-10T13:40:25.468Z,14396
2016-10-10T13:41:25.767Z,14284
2016-10-10T13:42:26.294Z,14228